sensor_id;sensor_type;location;lat;lon;timestamp;P1;durP1;ratioP1;P2;durP2;ratioP2
21816;SDS011;13247;47.504;7.382;2024-03-22T00:00:47;2.92;;;2.22;;
21816;SDS011;13247;47.504;7.382;2024-03-22T00:03:31;3.30;;;2.42;;
21816;SDS011;13247;47.504;7.382;2024-03-22T00:06:16;5.78;;;2.58;;
21816;SDS011;13247;47.504;7.382;2024-03-22T00:09:00;2.92;;;2.22;;
21816;SDS011;13247;47.504;7.382;2024-03-22T00:11:45;2.30;;;2.00;;
21816;SDS011;13247;47.504;7.382;2024-03-22T00:14:30;4.28;;;2.42;;
21816;SDS011;13247;47.504;7.382;2024-03-22T00:17:14;2.95;;;1.92;;
21816;SDS011;13247;47.504;7.382;2024-03-22T00:19:59;4.38;;;2.20;;
21816;SDS011;13247;47.504;7.382;2024-03-22T00:22:44;3.35;;;2.05;;
21816;SDS011;13247;47.504;7.382;2024-03-22T00:25:29;4.43;;;2.45;;
21816;SDS011;13247;47.504;7.382;2024-03-22T00:28:15;7.40;;;2.20;;
21816;SDS011;13247;47.504;7.382;2024-03-22T00:30:59;7.65;;;2.55;;
21816;SDS011;13247;47.504;7.382;2024-03-22T00:33:44;3.40;;;2.95;;
21816;SDS011;13247;47.504;7.382;2024-03-22T00:36:28;4.15;;;2.50;;
21816;SDS011;13247;47.504;7.382;2024-03-22T00:39:13;7.90;;;3.38;;
21816;SDS011;13247;47.504;7.382;2024-03-22T00:41:57;3.72;;;2.75;;
21816;SDS011;13247;47.504;7.382;2024-03-22T00:44:42;2.97;;;2.67;;
21816;SDS011;13247;47.504;7.382;2024-03-22T00:47:27;3.03;;;2.20;;
21816;SDS011;13247;47.504;7.382;2024-03-22T00:50:11;3.60;;;2.05;;
21816;SDS011;13247;47.504;7.382;2024-03-22T00:52:56;4.18;;;2.70;;
21816;SDS011;13247;47.504;7.382;2024-03-22T00:55:41;4.90;;;2.40;;
21816;SDS011;13247;47.504;7.382;2024-03-22T00:58:28;3.90;;;2.67;;
21816;SDS011;13247;47.504;7.382;2024-03-22T01:01:13;5.45;;;2.72;;
21816;SDS011;13247;47.504;7.382;2024-03-22T01:03:57;5.40;;;2.80;;
21816;SDS011;13247;47.504;7.382;2024-03-22T01:06:42;4.55;;;3.05;;
21816;SDS011;13247;47.504;7.382;2024-03-22T01:09:26;3.10;;;2.13;;
21816;SDS011;13247;47.504;7.382;2024-03-22T01:12:11;2.47;;;1.90;;
21816;SDS011;13247;47.504;7.382;2024-03-22T01:14:56;2.42;;;1.77;;
21816;SDS011;13247;47.504;7.382;2024-03-22T01:17:41;3.40;;;1.70;;
21816;SDS011;13247;47.504;7.382;2024-03-22T01:20:26;2.38;;;2.00;;
21816;SDS011;13247;47.504;7.382;2024-03-22T01:23:10;3.25;;;1.92;;
21816;SDS011;13247;47.504;7.382;2024-03-22T01:25:55;2.47;;;1.77;;
21816;SDS011;13247;47.504;7.382;2024-03-22T01:28:39;3.03;;;2.38;;
21816;SDS011;13247;47.504;7.382;2024-03-22T01:31:24;3.25;;;2.40;;
21816;SDS011;13247;47.504;7.382;2024-03-22T01:34:09;3.17;;;2.35;;
21816;SDS011;13247;47.504;7.382;2024-03-22T01:36:53;2.95;;;2.40;;
21816;SDS011;13247;47.504;7.382;2024-03-22T01:39:38;2.60;;;1.80;;
21816;SDS011;13247;47.504;7.382;2024-03-22T01:42:23;3.05;;;2.45;;
21816;SDS011;13247;47.504;7.382;2024-03-22T01:45:07;4.60;;;2.00;;
21816;SDS011;13247;47.504;7.382;2024-03-22T01:47:52;1.77;;;1.65;;
21816;SDS011;13247;47.504;7.382;2024-03-22T01:50:38;3.63;;;2.08;;
21816;SDS011;13247;47.504;7.382;2024-03-22T01:53:23;2.83;;;1.98;;
21816;SDS011;13247;47.504;7.382;2024-03-22T01:56:07;13.02;;;2.38;;
21816;SDS011;13247;47.504;7.382;2024-03-22T01:58:53;4.70;;;2.42;;
21816;SDS011;13247;47.504;7.382;2024-03-22T02:01:40;3.28;;;1.95;;
21816;SDS011;13247;47.504;7.382;2024-03-22T02:04:25;5.88;;;2.40;;
21816;SDS011;13247;47.504;7.382;2024-03-22T02:07:09;2.63;;;2.08;;
21816;SDS011;13247;47.504;7.382;2024-03-22T02:09:54;5.30;;;2.08;;
21816;SDS011;13247;47.504;7.382;2024-03-22T02:12:39;2.78;;;1.95;;
21816;SDS011;13247;47.504;7.382;2024-03-22T02:15:24;2.30;;;1.83;;
21816;SDS011;13247;47.504;7.382;2024-03-22T02:18:08;2.03;;;1.70;;
21816;SDS011;13247;47.504;7.382;2024-03-22T02:20:53;2.97;;;2.10;;
21816;SDS011;13247;47.504;7.382;2024-03-22T02:23:38;3.00;;;1.98;;
21816;SDS011;13247;47.504;7.382;2024-03-22T02:26:23;2.42;;;1.80;;
21816;SDS011;13247;47.504;7.382;2024-03-22T02:29:08;2.13;;;1.92;;
21816;SDS011;13247;47.504;7.382;2024-03-22T02:31:53;3.30;;;2.20;;
21816;SDS011;13247;47.504;7.382;2024-03-22T02:34:37;2.28;;;1.75;;
21816;SDS011;13247;47.504;7.382;2024-03-22T02:37:22;2.97;;;2.30;;
21816;SDS011;13247;47.504;7.382;2024-03-22T02:40:07;5.35;;;2.45;;
21816;SDS011;13247;47.504;7.382;2024-03-22T02:42:52;3.97;;;2.65;;
21816;SDS011;13247;47.504;7.382;2024-03-22T02:45:36;2.03;;;1.83;;
21816;SDS011;13247;47.504;7.382;2024-03-22T02:48:21;2.05;;;1.90;;
21816;SDS011;13247;47.504;7.382;2024-03-22T02:51:06;2.53;;;1.40;;
21816;SDS011;13247;47.504;7.382;2024-03-22T02:53:51;4.22;;;2.03;;
21816;SDS011;13247;47.504;7.382;2024-03-22T02:56:35;2.70;;;1.80;;
21816;SDS011;13247;47.504;7.382;2024-03-22T02:59:20;2.42;;;1.88;;
21816;SDS011;13247;47.504;7.382;2024-03-22T03:02:05;3.58;;;1.83;;
21816;SDS011;13247;47.504;7.382;2024-03-22T03:04:49;2.17;;;1.60;;
21816;SDS011;13247;47.504;7.382;2024-03-22T03:07:34;2.28;;;1.77;;
21816;SDS011;13247;47.504;7.382;2024-03-22T03:10:19;2.47;;;1.83;;
21816;SDS011;13247;47.504;7.382;2024-03-22T03:13:03;2.75;;;1.52;;
21816;SDS011;13247;47.504;7.382;2024-03-22T03:15:48;4.05;;;1.85;;
21816;SDS011;13247;47.504;7.382;2024-03-22T03:18:32;3.53;;;1.85;;
21816;SDS011;13247;47.504;7.382;2024-03-22T03:21:17;2.95;;;1.83;;
21816;SDS011;13247;47.504;7.382;2024-03-22T03:24:02;2.97;;;2.38;;
21816;SDS011;13247;47.504;7.382;2024-03-22T03:26:46;6.93;;;1.88;;
21816;SDS011;13247;47.504;7.382;2024-03-22T03:29:31;2.63;;;1.95;;
21816;SDS011;13247;47.504;7.382;2024-03-22T03:32:15;7.13;;;2.17;;
21816;SDS011;13247;47.504;7.382;2024-03-22T03:35:00;6.72;;;2.38;;
21816;SDS011;13247;47.504;7.382;2024-03-22T03:37:44;2.42;;;1.90;;
21816;SDS011;13247;47.504;7.382;2024-03-22T03:40:29;3.13;;;2.53;;
21816;SDS011;13247;47.504;7.382;2024-03-22T03:43:13;3.05;;;2.13;;
21816;SDS011;13247;47.504;7.382;2024-03-22T03:45:58;5.45;;;2.10;;
21816;SDS011;13247;47.504;7.382;2024-03-22T03:48:43;3.65;;;1.90;;
21816;SDS011;13247;47.504;7.382;2024-03-22T03:51:28;5.53;;;2.25;;
21816;SDS011;13247;47.504;7.382;2024-03-22T03:54:13;5.35;;;2.33;;
21816;SDS011;13247;47.504;7.382;2024-03-22T03:56:57;4.47;;;2.33;;
21816;SDS011;13247;47.504;7.382;2024-03-22T03:59:42;3.10;;;2.15;;
21816;SDS011;13247;47.504;7.382;2024-03-22T04:02:26;5.15;;;2.13;;
21816;SDS011;13247;47.504;7.382;2024-03-22T04:05:11;2.70;;;2.15;;
21816;SDS011;13247;47.504;7.382;2024-03-22T04:07:56;4.45;;;2.33;;
21816;SDS011;13247;47.504;7.382;2024-03-22T04:10:40;4.90;;;2.17;;
21816;SDS011;13247;47.504;7.382;2024-03-22T04:13:25;3.75;;;2.70;;
21816;SDS011;13247;47.504;7.382;2024-03-22T04:16:11;4.30;;;2.42;;
21816;SDS011;13247;47.504;7.382;2024-03-22T04:18:55;2.92;;;2.15;;
21816;SDS011;13247;47.504;7.382;2024-03-22T04:21:40;2.38;;;2.17;;
21816;SDS011;13247;47.504;7.382;2024-03-22T04:24:24;3.17;;;2.28;;
21816;SDS011;13247;47.504;7.382;2024-03-22T04:27:09;3.90;;;2.30;;
21816;SDS011;13247;47.504;7.382;2024-03-22T04:29:53;5.53;;;2.80;;
21816;SDS011;13247;47.504;7.382;2024-03-22T04:32:38;2.63;;;2.42;;
21816;SDS011;13247;47.504;7.382;2024-03-22T04:35:23;2.83;;;2.60;;
21816;SDS011;13247;47.504;7.382;2024-03-22T04:38:07;3.65;;;2.60;;
21816;SDS011;13247;47.504;7.382;2024-03-22T04:40:52;3.28;;;2.33;;
21816;SDS011;13247;47.504;7.382;2024-03-22T04:43:38;3.30;;;2.45;;
21816;SDS011;13247;47.504;7.382;2024-03-22T04:46:22;6.25;;;2.15;;
21816;SDS011;13247;47.504;7.382;2024-03-22T04:49:07;2.35;;;2.10;;
21816;SDS011;13247;47.504;7.382;2024-03-22T04:51:51;3.38;;;2.60;;
21816;SDS011;13247;47.504;7.382;2024-03-22T04:54:36;3.28;;;2.60;;
21816;SDS011;13247;47.504;7.382;2024-03-22T04:57:20;4.60;;;2.30;;
21816;SDS011;13247;47.504;7.382;2024-03-22T05:00:05;5.45;;;2.55;;
21816;SDS011;13247;47.504;7.382;2024-03-22T05:02:52;5.57;;;2.83;;
21816;SDS011;13247;47.504;7.382;2024-03-22T05:05:37;3.25;;;2.67;;
21816;SDS011;13247;47.504;7.382;2024-03-22T05:08:22;4.35;;;2.38;;
21816;SDS011;13247;47.504;7.382;2024-03-22T05:11:07;7.85;;;3.53;;
21816;SDS011;13247;47.504;7.382;2024-03-22T05:13:52;6.10;;;4.00;;
21816;SDS011;13247;47.504;7.382;2024-03-22T05:16:36;7.30;;;3.08;;
21816;SDS011;13247;47.504;7.382;2024-03-22T05:19:21;5.57;;;2.90;;
21816;SDS011;13247;47.504;7.382;2024-03-22T05:22:05;4.30;;;2.72;;
21816;SDS011;13247;47.504;7.382;2024-03-22T05:24:50;2.88;;;2.58;;
21816;SDS011;13247;47.504;7.382;2024-03-22T05:27:35;3.42;;;2.67;;
21816;SDS011;13247;47.504;7.382;2024-03-22T05:30:20;5.18;;;2.45;;
21816;SDS011;13247;47.504;7.382;2024-03-22T05:33:04;3.38;;;2.70;;
21816;SDS011;13247;47.504;7.382;2024-03-22T05:35:49;6.20;;;3.17;;
21816;SDS011;13247;47.504;7.382;2024-03-22T05:38:33;5.93;;;2.88;;
21816;SDS011;13247;47.504;7.382;2024-03-22T05:41:18;4.28;;;2.33;;
21816;SDS011;13247;47.504;7.382;2024-03-22T05:44:03;5.45;;;2.63;;
21816;SDS011;13247;47.504;7.382;2024-03-22T05:46:48;4.25;;;2.90;;
21816;SDS011;13247;47.504;7.382;2024-03-22T05:49:32;3.20;;;2.80;;
21816;SDS011;13247;47.504;7.382;2024-03-22T05:52:17;4.65;;;3.33;;
21816;SDS011;13247;47.504;7.382;2024-03-22T05:55:02;6.20;;;3.55;;
21816;SDS011;13247;47.504;7.382;2024-03-22T05:57:47;3.97;;;3.08;;
21816;SDS011;13247;47.504;7.382;2024-03-22T06:00:31;3.92;;;2.72;;
21816;SDS011;13247;47.504;7.382;2024-03-22T06:03:16;6.47;;;3.15;;
21816;SDS011;13247;47.504;7.382;2024-03-22T06:06:00;5.13;;;3.25;;
21816;SDS011;13247;47.504;7.382;2024-03-22T06:08:47;3.58;;;2.55;;
21816;SDS011;13247;47.504;7.382;2024-03-22T06:11:35;6.07;;;3.22;;
21816;SDS011;13247;47.504;7.382;2024-03-22T06:14:20;6.85;;;2.70;;
21816;SDS011;13247;47.504;7.382;2024-03-22T06:17:05;4.13;;;3.22;;
21816;SDS011;13247;47.504;7.382;2024-03-22T06:19:50;5.68;;;3.53;;
21816;SDS011;13247;47.504;7.382;2024-03-22T06:22:35;4.60;;;2.88;;
21816;SDS011;13247;47.504;7.382;2024-03-22T06:25:19;4.25;;;3.28;;
21816;SDS011;13247;47.504;7.382;2024-03-22T06:28:04;2.95;;;2.45;;
21816;SDS011;13247;47.504;7.382;2024-03-22T06:30:49;3.85;;;2.85;;
21816;SDS011;13247;47.504;7.382;2024-03-22T06:33:33;3.15;;;2.47;;
21816;SDS011;13247;47.504;7.382;2024-03-22T06:36:18;4.47;;;2.58;;
21816;SDS011;13247;47.504;7.382;2024-03-22T06:39:03;2.53;;;2.30;;
21816;SDS011;13247;47.504;7.382;2024-03-22T06:41:51;4.45;;;2.17;;
21816;SDS011;13247;47.504;7.382;2024-03-22T06:44:36;8.00;;;2.83;;
21816;SDS011;13247;47.504;7.382;2024-03-22T06:47:21;4.28;;;2.70;;
21816;SDS011;13247;47.504;7.382;2024-03-22T06:50:07;4.68;;;2.88;;
21816;SDS011;13247;47.504;7.382;2024-03-22T06:52:52;3.78;;;2.95;;
21816;SDS011;13247;47.504;7.382;2024-03-22T06:55:37;2.97;;;2.33;;
21816;SDS011;13247;47.504;7.382;2024-03-22T06:58:21;2.60;;;2.17;;
21816;SDS011;13247;47.504;7.382;2024-03-22T07:01:07;4.80;;;2.80;;
21816;SDS011;13247;47.504;7.382;2024-03-22T07:03:52;5.85;;;2.95;;
21816;SDS011;13247;47.504;7.382;2024-03-22T07:06:37;3.35;;;3.05;;
21816;SDS011;13247;47.504;7.382;2024-03-22T07:09:21;3.80;;;2.50;;
21816;SDS011;13247;47.504;7.382;2024-03-22T07:12:06;7.35;;;2.50;;
21816;SDS011;13247;47.504;7.382;2024-03-22T07:14:51;4.97;;;3.42;;
21816;SDS011;13247;47.504;7.382;2024-03-22T07:17:35;4.97;;;3.60;;
21816;SDS011;13247;47.504;7.382;2024-03-22T07:20:20;5.78;;;3.75;;
21816;SDS011;13247;47.504;7.382;2024-03-22T07:23:04;3.90;;;3.00;;
21816;SDS011;13247;47.504;7.382;2024-03-22T07:25:49;4.07;;;3.33;;
21816;SDS011;13247;47.504;7.382;2024-03-22T07:28:33;4.43;;;3.33;;
21816;SDS011;13247;47.504;7.382;2024-03-22T07:31:18;19.38;;;4.38;;
21816;SDS011;13247;47.504;7.382;2024-03-22T07:34:02;10.63;;;5.68;;
21816;SDS011;13247;47.504;7.382;2024-03-22T07:36:47;12.68;;;6.10;;
21816;SDS011;13247;47.504;7.382;2024-03-22T07:39:32;9.65;;;5.00;;
21816;SDS011;13247;47.504;7.382;2024-03-22T07:42:16;4.35;;;3.10;;
21816;SDS011;13247;47.504;7.382;2024-03-22T07:45:01;5.70;;;3.47;;
21816;SDS011;13247;47.504;7.382;2024-03-22T07:47:47;4.45;;;3.35;;
21816;SDS011;13247;47.504;7.382;2024-03-22T07:50:32;7.68;;;4.10;;
21816;SDS011;13247;47.504;7.382;2024-03-22T07:53:16;9.88;;;4.47;;
21816;SDS011;13247;47.504;7.382;2024-03-22T07:56:01;5.97;;;3.10;;
21816;SDS011;13247;47.504;7.382;2024-03-22T07:58:45;9.82;;;3.45;;
21816;SDS011;13247;47.504;7.382;2024-03-22T08:01:30;6.18;;;3.72;;
21816;SDS011;13247;47.504;7.382;2024-03-22T08:04:15;4.47;;;3.10;;
21816;SDS011;13247;47.504;7.382;2024-03-22T08:07:00;11.82;;;4.57;;
21816;SDS011;13247;47.504;7.382;2024-03-22T08:09:44;6.15;;;3.60;;
21816;SDS011;13247;47.504;7.382;2024-03-22T08:12:29;9.07;;;3.85;;
21816;SDS011;13247;47.504;7.382;2024-03-22T08:15:15;7.45;;;3.58;;
21816;SDS011;13247;47.504;7.382;2024-03-22T08:18:00;5.20;;;3.33;;
21816;SDS011;13247;47.504;7.382;2024-03-22T08:20:46;6.38;;;3.45;;
21816;SDS011;13247;47.504;7.382;2024-03-22T08:23:30;6.10;;;3.40;;
21816;SDS011;13247;47.504;7.382;2024-03-22T08:26:15;3.15;;;2.45;;
21816;SDS011;13247;47.504;7.382;2024-03-22T08:29:00;4.35;;;2.67;;
21816;SDS011;13247;47.504;7.382;2024-03-22T08:31:44;2.50;;;1.83;;
21816;SDS011;13247;47.504;7.382;2024-03-22T08:34:32;2.15;;;1.83;;
21816;SDS011;13247;47.504;7.382;2024-03-22T08:37:17;4.90;;;2.42;;
21816;SDS011;13247;47.504;7.382;2024-03-22T08:40:01;3.45;;;2.10;;
21816;SDS011;13247;47.504;7.382;2024-03-22T08:42:48;5.22;;;2.42;;
21816;SDS011;13247;47.504;7.382;2024-03-22T08:45:32;3.28;;;2.03;;
21816;SDS011;13247;47.504;7.382;2024-03-22T08:48:17;2.60;;;2.03;;
21816;SDS011;13247;47.504;7.382;2024-03-22T08:51:03;5.30;;;2.58;;
21816;SDS011;13247;47.504;7.382;2024-03-22T08:53:48;7.53;;;3.10;;
21816;SDS011;13247;47.504;7.382;2024-03-22T08:56:33;13.73;;;4.53;;
21816;SDS011;13247;47.504;7.382;2024-03-22T08:59:17;8.80;;;4.38;;
21816;SDS011;13247;47.504;7.382;2024-03-22T09:02:02;5.45;;;2.83;;
21816;SDS011;13247;47.504;7.382;2024-03-22T09:04:48;6.85;;;3.83;;
21816;SDS011;13247;47.504;7.382;2024-03-22T09:07:33;3.22;;;1.83;;
21816;SDS011;13247;47.504;7.382;2024-03-22T09:10:18;1.92;;;1.67;;
21816;SDS011;13247;47.504;7.382;2024-03-22T09:13:02;3.83;;;1.45;;
21816;SDS011;13247;47.504;7.382;2024-03-22T09:15:47;5.57;;;2.80;;
21816;SDS011;13247;47.504;7.382;2024-03-22T09:18:32;4.63;;;1.40;;
21816;SDS011;13247;47.504;7.382;2024-03-22T09:21:17;4.22;;;1.67;;
21816;SDS011;13247;47.504;7.382;2024-03-22T09:24:02;1.08;;;0.98;;
21816;SDS011;13247;47.504;7.382;2024-03-22T09:26:46;2.42;;;0.98;;
21816;SDS011;13247;47.504;7.382;2024-03-22T09:29:31;1.67;;;1.20;;
21816;SDS011;13247;47.504;7.382;2024-03-22T09:32:16;2.67;;;1.23;;
21816;SDS011;13247;47.504;7.382;2024-03-22T09:35:00;2.22;;;1.48;;
21816;SDS011;13247;47.504;7.382;2024-03-22T09:37:45;1.15;;;0.90;;
21816;SDS011;13247;47.504;7.382;2024-03-22T09:40:30;2.97;;;0.95;;
21816;SDS011;13247;47.504;7.382;2024-03-22T09:43:15;1.70;;;1.02;;
21816;SDS011;13247;47.504;7.382;2024-03-22T09:46:02;0.73;;;0.70;;
21816;SDS011;13247;47.504;7.382;2024-03-22T09:48:50;2.50;;;0.98;;
21816;SDS011;13247;47.504;7.382;2024-03-22T09:51:35;1.10;;;0.80;;
21816;SDS011;13247;47.504;7.382;2024-03-22T09:54:22;1.48;;;0.95;;
21816;SDS011;13247;47.504;7.382;2024-03-22T09:57:13;1.80;;;0.90;;
21816;SDS011;13247;47.504;7.382;2024-03-22T10:00:02;1.00;;;0.90;;
21816;SDS011;13247;47.504;7.382;2024-03-22T10:02:49;0.75;;;0.75;;
21816;SDS011;13247;47.504;7.382;2024-03-22T10:05:34;1.10;;;1.00;;
21816;SDS011;13247;47.504;7.382;2024-03-22T10:08:19;1.17;;;0.98;;
21816;SDS011;13247;47.504;7.382;2024-03-22T10:11:05;0.82;;;0.75;;
21816;SDS011;13247;47.504;7.382;2024-03-22T10:13:50;1.70;;;1.10;;
21816;SDS011;13247;47.504;7.382;2024-03-22T10:16:34;0.80;;;0.80;;
21816;SDS011;13247;47.504;7.382;2024-03-22T10:19:20;2.05;;;0.90;;
21816;SDS011;13247;47.504;7.382;2024-03-22T10:22:05;1.23;;;0.82;;
21816;SDS011;13247;47.504;7.382;2024-03-22T10:24:49;0.93;;;0.70;;
21816;SDS011;13247;47.504;7.382;2024-03-22T10:27:34;1.15;;;0.77;;
21816;SDS011;13247;47.504;7.382;2024-03-22T10:30:22;0.80;;;0.80;;
21816;SDS011;13247;47.504;7.382;2024-03-22T10:33:08;2.20;;;1.10;;
21816;SDS011;13247;47.504;7.382;2024-03-22T10:35:53;3.53;;;1.00;;
21816;SDS011;13247;47.504;7.382;2024-03-22T10:38:38;1.33;;;0.70;;
21816;SDS011;13247;47.504;7.382;2024-03-22T10:41:25;0.68;;;0.65;;
21816;SDS011;13247;47.504;7.382;2024-03-22T10:44:09;0.95;;;0.80;;
21816;SDS011;13247;47.504;7.382;2024-03-22T10:46:54;1.00;;;0.77;;
21816;SDS011;13247;47.504;7.382;2024-03-22T10:49:43;1.27;;;0.95;;
21816;SDS011;13247;47.504;7.382;2024-03-22T10:52:37;2.92;;;0.95;;
21816;SDS011;13247;47.504;7.382;2024-03-22T10:58:16;1.73;;;1.15;;
21816;SDS011;13247;47.504;7.382;2024-03-22T11:01:04;1.65;;;0.98;;
21816;SDS011;13247;47.504;7.382;2024-03-22T11:03:49;1.75;;;0.88;;
21816;SDS011;13247;47.504;7.382;2024-03-22T11:06:33;0.60;;;0.60;;
21816;SDS011;13247;47.504;7.382;2024-03-22T11:09:21;1.35;;;0.60;;
21816;SDS011;13247;47.504;7.382;2024-03-22T11:12:06;1.25;;;0.70;;
21816;SDS011;13247;47.504;7.382;2024-03-22T11:14:53;3.72;;;1.42;;
21816;SDS011;13247;47.504;7.382;2024-03-22T11:17:39;3.03;;;1.52;;
21816;SDS011;13247;47.504;7.382;2024-03-22T11:20:27;4.50;;;2.38;;
21816;SDS011;13247;47.504;7.382;2024-03-22T11:23:13;1.77;;;1.05;;
21816;SDS011;13247;47.504;7.382;2024-03-22T11:25:58;0.90;;;0.70;;
21816;SDS011;13247;47.504;7.382;2024-03-22T11:28:42;5.32;;;1.20;;
21816;SDS011;13247;47.504;7.382;2024-03-22T11:31:27;1.48;;;0.65;;
21816;SDS011;13247;47.504;7.382;2024-03-22T11:34:11;1.88;;;1.23;;
21816;SDS011;13247;47.504;7.382;2024-03-22T11:36:56;1.00;;;0.63;;
21816;SDS011;13247;47.504;7.382;2024-03-22T11:39:41;1.17;;;0.70;;
21816;SDS011;13247;47.504;7.382;2024-03-22T11:42:25;1.05;;;0.40;;
21816;SDS011;13247;47.504;7.382;2024-03-22T11:45:11;2.72;;;0.60;;
21816;SDS011;13247;47.504;7.382;2024-03-22T11:47:57;1.17;;;0.75;;
21816;SDS011;13247;47.504;7.382;2024-03-22T11:50:45;1.33;;;0.73;;
21816;SDS011;13247;47.504;7.382;2024-03-22T11:53:30;0.88;;;0.70;;
21816;SDS011;13247;47.504;7.382;2024-03-22T11:56:17;1.90;;;0.68;;
21816;SDS011;13247;47.504;7.382;2024-03-22T11:59:03;2.33;;;0.60;;
21816;SDS011;13247;47.504;7.382;2024-03-22T12:01:47;2.05;;;1.05;;
21816;SDS011;13247;47.504;7.382;2024-03-22T12:04:32;2.83;;;1.40;;
21816;SDS011;13247;47.504;7.382;2024-03-22T12:07:17;4.07;;;2.35;;
21816;SDS011;13247;47.504;7.382;2024-03-22T12:10:02;3.22;;;1.58;;
21816;SDS011;13247;47.504;7.382;2024-03-22T12:12:47;1.42;;;0.85;;
21816;SDS011;13247;47.504;7.382;2024-03-22T12:15:32;0.77;;;0.70;;
21816;SDS011;13247;47.504;7.382;2024-03-22T12:18:16;4.72;;;1.90;;
21816;SDS011;13247;47.504;7.382;2024-03-22T12:21:01;1.58;;;0.85;;
21816;SDS011;13247;47.504;7.382;2024-03-22T12:23:46;4.40;;;0.60;;
21816;SDS011;13247;47.504;7.382;2024-03-22T12:26:31;0.55;;;0.55;;
21816;SDS011;13247;47.504;7.382;2024-03-22T12:29:16;2.33;;;0.63;;
21816;SDS011;13247;47.504;7.382;2024-03-22T12:32:01;0.60;;;0.60;;
21816;SDS011;13247;47.504;7.382;2024-03-22T12:34:50;3.35;;;0.73;;
21816;SDS011;13247;47.504;7.382;2024-03-22T12:37:35;1.20;;;0.60;;
21816;SDS011;13247;47.504;7.382;2024-03-22T12:40:20;0.50;;;0.50;;
21816;SDS011;13247;47.504;7.382;2024-03-22T12:43:04;0.60;;;0.50;;
21816;SDS011;13247;47.504;7.382;2024-03-22T12:45:49;3.72;;;0.70;;
21816;SDS011;13247;47.504;7.382;2024-03-22T12:48:34;0.93;;;0.80;;
21816;SDS011;13247;47.504;7.382;2024-03-22T12:51:19;2.60;;;0.73;;
21816;SDS011;13247;47.504;7.382;2024-03-22T12:54:04;0.43;;;0.38;;
21816;SDS011;13247;47.504;7.382;2024-03-22T12:56:51;2.28;;;0.88;;
21816;SDS011;13247;47.504;7.382;2024-03-22T12:59:36;1.05;;;0.65;;
21816;SDS011;13247;47.504;7.382;2024-03-22T13:02:20;1.48;;;0.80;;
21816;SDS011;13247;47.504;7.382;2024-03-22T13:05:05;2.90;;;0.65;;
21816;SDS011;13247;47.504;7.382;2024-03-22T13:07:50;0.50;;;0.47;;
21816;SDS011;13247;47.504;7.382;2024-03-22T13:10:35;1.10;;;0.82;;
21816;SDS011;13247;47.504;7.382;2024-03-22T13:13:20;0.73;;;0.70;;
21816;SDS011;13247;47.504;7.382;2024-03-22T13:16:05;0.50;;;0.50;;
21816;SDS011;13247;47.504;7.382;2024-03-22T13:18:50;1.20;;;0.77;;
21816;SDS011;13247;47.504;7.382;2024-03-22T13:21:35;1.35;;;1.02;;
21816;SDS011;13247;47.504;7.382;2024-03-22T13:24:20;3.20;;;0.90;;
21816;SDS011;13247;47.504;7.382;2024-03-22T13:27:04;0.63;;;0.63;;
21816;SDS011;13247;47.504;7.382;2024-03-22T13:29:49;0.82;;;0.77;;
21816;SDS011;13247;47.504;7.382;2024-03-22T13:32:33;0.40;;;0.40;;
21816;SDS011;13247;47.504;7.382;2024-03-22T13:35:18;0.60;;;0.60;;
21816;SDS011;13247;47.504;7.382;2024-03-22T13:38:03;0.68;;;0.68;;
21816;SDS011;13247;47.504;7.382;2024-03-22T13:40:56;1.58;;;0.80;;
21816;SDS011;13247;47.504;7.382;2024-03-22T13:43:44;1.27;;;0.88;;
21816;SDS011;13247;47.504;7.382;2024-03-22T13:46:28;0.80;;;0.63;;
21816;SDS011;13247;47.504;7.382;2024-03-22T13:49:14;1.73;;;0.63;;
21816;SDS011;13247;47.504;7.382;2024-03-22T13:52:00;1.90;;;0.95;;
21816;SDS011;13247;47.504;7.382;2024-03-22T13:54:45;1.58;;;0.70;;
21816;SDS011;13247;47.504;7.382;2024-03-22T13:57:30;0.98;;;0.60;;
21816;SDS011;13247;47.504;7.382;2024-03-22T14:00:15;3.47;;;1.00;;
21816;SDS011;13247;47.504;7.382;2024-03-22T14:03:01;1.10;;;0.60;;
21816;SDS011;13247;47.504;7.382;2024-03-22T14:05:46;1.23;;;0.90;;
21816;SDS011;13247;47.504;7.382;2024-03-22T14:08:31;1.60;;;0.77;;
21816;SDS011;13247;47.504;7.382;2024-03-22T14:11:15;1.92;;;0.82;;
21816;SDS011;13247;47.504;7.382;2024-03-22T14:14:01;0.95;;;0.60;;
21816;SDS011;13247;47.504;7.382;2024-03-22T14:16:45;1.00;;;0.93;;
21816;SDS011;13247;47.504;7.382;2024-03-22T14:19:30;1.27;;;1.15;;
21816;SDS011;13247;47.504;7.382;2024-03-22T14:22:15;1.83;;;0.80;;
21816;SDS011;13247;47.504;7.382;2024-03-22T14:24:59;1.55;;;0.90;;
21816;SDS011;13247;47.504;7.382;2024-03-22T14:27:46;1.35;;;1.25;;
21816;SDS011;13247;47.504;7.382;2024-03-22T14:30:31;0.75;;;0.73;;
21816;SDS011;13247;47.504;7.382;2024-03-22T14:33:15;0.75;;;0.75;;
21816;SDS011;13247;47.504;7.382;2024-03-22T14:36:00;1.10;;;1.00;;
21816;SDS011;13247;47.504;7.382;2024-03-22T14:38:46;2.42;;;0.80;;
21816;SDS011;13247;47.504;7.382;2024-03-22T14:41:32;0.93;;;0.88;;
21816;SDS011;13247;47.504;7.382;2024-03-22T14:44:16;1.50;;;0.73;;
21816;SDS011;13247;47.504;7.382;2024-03-22T14:47:01;1.40;;;0.70;;
21816;SDS011;13247;47.504;7.382;2024-03-22T14:49:50;1.45;;;0.90;;
21816;SDS011;13247;47.504;7.382;2024-03-22T14:52:35;2.13;;;1.00;;
21816;SDS011;13247;47.504;7.382;2024-03-22T14:55:21;2.45;;;1.40;;
21816;SDS011;13247;47.504;7.382;2024-03-22T14:58:06;2.38;;;1.25;;
21816;SDS011;13247;47.504;7.382;2024-03-22T15:00:54;1.70;;;1.10;;
21816;SDS011;13247;47.504;7.382;2024-03-22T15:03:39;1.30;;;1.13;;
21816;SDS011;13247;47.504;7.382;2024-03-22T15:06:24;2.65;;;0.90;;
21816;SDS011;13247;47.504;7.382;2024-03-22T15:09:08;0.98;;;0.80;;
21816;SDS011;13247;47.504;7.382;2024-03-22T15:11:53;0.77;;;0.77;;
21816;SDS011;13247;47.504;7.382;2024-03-22T15:14:42;1.77;;;1.05;;
21816;SDS011;13247;47.504;7.382;2024-03-22T15:17:27;3.33;;;0.80;;
21816;SDS011;13247;47.504;7.382;2024-03-22T15:20:11;1.05;;;0.85;;
21816;SDS011;13247;47.504;7.382;2024-03-22T15:22:56;2.05;;;0.82;;
21816;SDS011;13247;47.504;7.382;2024-03-22T15:25:44;3.80;;;1.20;;
21816;SDS011;13247;47.504;7.382;2024-03-22T15:28:28;1.83;;;0.88;;
21816;SDS011;13247;47.504;7.382;2024-03-22T15:31:13;5.85;;;2.55;;
21816;SDS011;13247;47.504;7.382;2024-03-22T15:33:58;1.75;;;1.35;;
21816;SDS011;13247;47.504;7.382;2024-03-22T15:36:43;2.45;;;1.38;;
21816;SDS011;13247;47.504;7.382;2024-03-22T15:39:27;1.52;;;1.00;;
21816;SDS011;13247;47.504;7.382;2024-03-22T15:42:12;1.00;;;0.77;;
21816;SDS011;13247;47.504;7.382;2024-03-22T15:44:56;2.80;;;0.90;;
21816;SDS011;13247;47.504;7.382;2024-03-22T15:47:46;2.53;;;0.80;;
21816;SDS011;13247;47.504;7.382;2024-03-22T15:50:30;2.53;;;1.00;;
21816;SDS011;13247;47.504;7.382;2024-03-22T15:53:16;2.13;;;1.15;;
21816;SDS011;13247;47.504;7.382;2024-03-22T15:56:01;4.35;;;1.33;;
21816;SDS011;13247;47.504;7.382;2024-03-22T15:58:47;4.32;;;1.02;;
21816;SDS011;13247;47.504;7.382;2024-03-22T16:01:32;1.58;;;0.85;;
21816;SDS011;13247;47.504;7.382;2024-03-22T16:04:16;5.40;;;2.25;;
21816;SDS011;13247;47.504;7.382;2024-03-22T16:07:02;2.60;;;1.00;;
21816;SDS011;13247;47.504;7.382;2024-03-22T16:09:47;4.22;;;1.52;;
21816;SDS011;13247;47.504;7.382;2024-03-22T16:12:32;1.95;;;1.30;;
21816;SDS011;13247;47.504;7.382;2024-03-22T16:15:17;3.15;;;1.17;;
21816;SDS011;13247;47.504;7.382;2024-03-22T16:18:01;0.85;;;0.85;;
21816;SDS011;13247;47.504;7.382;2024-03-22T16:20:46;1.58;;;1.23;;
21816;SDS011;13247;47.504;7.382;2024-03-22T16:23:31;2.13;;;1.25;;
21816;SDS011;13247;47.504;7.382;2024-03-22T16:26:16;4.22;;;1.30;;
21816;SDS011;13247;47.504;7.382;2024-03-22T16:29:01;2.17;;;1.23;;
21816;SDS011;13247;47.504;7.382;2024-03-22T16:31:47;1.13;;;1.02;;
21816;SDS011;13247;47.504;7.382;2024-03-22T16:34:32;2.28;;;0.90;;
21816;SDS011;13247;47.504;7.382;2024-03-22T16:37:16;0.90;;;0.90;;